This is the latest recevied weather packets stored in our database for station/object VU3OPZ-13. If no packets are shown the sender has not sent any weather packets the latest 10 day(s).
| Time | Temp. | Humidity | Pressure | Rain* | Wind** | Luminosity | Snow |
|---|---|---|---|---|---|---|---|
| 1787842943 | 23.33° C | 82% | 1012 hPa | 0 mm | - | - | - |
| 1787841139 | 23.33° C | 82% | 1012 hPa | 0 mm | - | - | - |
| 1787839335 | 23.89° C | 78% | 1011 hPa | 0 mm | - | - | - |
| 1787837531 | 23.89° C | 78% | 1011 hPa | 0 mm | - | - | - |
| 1787835726 | 25.56° C | 70% | 1010 hPa | 0 mm | - | - | - |
| 1787833921 | 25° C | 70% | 1010 hPa | 0 mm | - | - | - |
| 1787832117 | 26.67° C | 62% | 1009 hPa | 0 mm | - | - | - |
| 1787828505 | 27.78° C | 58% | 1009 hPa | 0 mm | - | - | - |
| 1787826701 | 27.78° C | 58% | 1009 hPa | 0 mm | - | - | - |
| 1787821286 | 28.89° C | 54% | 1009 hPa | 0 mm | - | - | - |
| 1787819481 | 28.89° C | 55% | 1009 hPa | 0 mm | - | - | - |
| 1787817676 | 28.89° C | 56% | 1010 hPa | 0 mm | - | - | - |
| 1787815872 | 28.89° C | 55% | 1009 hPa | 0 mm | - | - | - |
| 1787814067 | 28.89° C | 56% | 1010 hPa | 0 mm | - | - | - |
| 1787812262 | 28.89° C | 56% | 1010 hPa | 0 mm | - | - | - |
| 1787810458 | 28.33° C | 57% | 1011 hPa | 0 mm | - | - | - |
| 1787808653 | 28.33° C | 57% | 1011 hPa | 0 mm | - | - | - |
| 1787806852 | 27.22° C | 61% | 1012 hPa | 0 mm | - | - | - |
| 1787805044 | 27.22° C | 61% | 1012 hPa | 0 mm | - | - | - |
| 1787803240 | 26.11° C | 67% | 1012 hPa | 0 mm | - | - | - |
| 1787801436 | 26.11° C | 66% | 1012 hPa | 0 mm | - | - | - |
| 1787799632 | 24.44° C | 74% | 1012 hPa | 0 mm | - | - | - |
| 1787797827 | 24.44° C | 75% | 1012 hPa | 0 mm | - | - | - |
| 1787796023 | 22.78° C | 84% | 1011 hPa | 0 mm | - | - | - |
| 1787794219 | 22.78° C | 84% | 1011 hPa | 0 mm | - | - | - |
* Rain latest hour (hover to see other rain measurements)
** Current wind speed in m/s (hover to see current wind gust speed)